Clipper 3 — ZMT3984 — position and weather

sailwx.info

Track history (hours):
 
Tides and Currents Weather Stations Pressure Air Temp Water Temp Dewpoint Dewpoint Depression Visibility Wind Speed Wind Dir Waves Ship Positions

Clipper 3

Last reported at 2015-Jul-31 06:17 UTC. Time now 2015-Aug-01 18:16 UTC.
Position S 36°51' E 174°53'.

Length 14 m; draft 1 m.

Type: High speed craft. MMSI: 512000741.

Date/timePositionNaut miles runAvg speedWind from/ knotsBaromVisibWave heightAir tempDewpointWater temp
2015-Jul-31 06:17S 36°51' E 174°53'6 3.5
2015-Jul-31 04:33S 36°51' E 174°46'6 0.8
2015-Jul-30 21:06S 36°51' E 174°54'3 5.4
2015-Jul-30 20:34S 36°50' E 174°50'3 3.0
2015-Jul-30 19:33S 36°50' E 174°46'6 0.5
2015-Jul-30 06:17S 36°50' E 174°54'6 3.8
2015-Jul-30 04:33S 36°51' E 174°46'6 2.6
2015-Jul-30 02:15S 36°51' E 174°53'0 0.0
2015-Jul-30 00:15S 36°51' E 174°54'0 0.0
2015-Jul-29 21:06S 36°51' E 174°54'3 6.0
2015-Jul-29 20:34S 36°50' E 174°50'3 2.9
2015-Jul-29 19:33S 36°50' E 174°46'0 0.0
2015-Jul-29 06:33S 36°51' E 174°46'6 5.6
2015-Jul-29 05:26S 36°51' E 174°54'0 0.2
2015-Jul-29 04:05S 36°51' E 174°54'4 7.3
2015-Jul-29 03:33S 36°50' E 174°49'4 3.0
2015-Jul-29 02:17S 36°51' E 174°53'0 0.2
2015-Jul-29 00:19S 36°51' E 174°54'1 0.5
2015-Jul-28 21:34S 36°50' E 174°52'1 0.6
2015-Jul-28 20:15S 36°51' E 174°53'0 0.0
2015-Jul-28 06:16S 36°51' E 174°54'6 3.7
2015-Jul-28 04:34S 36°51' E 174°46'5 5.5
2015-Jul-28 03:34S 36°50' E 174°53'1 0.8
2015-Jul-28 02:17S 36°51' E 174°54'0 0.2
2015-Jul-28 00:15S 36°51' E 174°54'6 3.6
2015-Jul-27 22:33S 36°51' E 174°46'6 4.2
2015-Jul-27 21:06S 36°51' E 174°54'3 5.1
2015-Jul-27 20:33S 36°50' E 174°50'3 3.1
2015-Jul-27 19:34S 36°50' E 174°46'6 0.5
2015-Jul-27 06:19S 36°51' E 174°54'6 3.6
2015-Jul-27 04:34S 36°51' E 174°46'6 0.8
2015-Jul-26 21:07S 36°51' E 174°53'2 4.4
2015-Jul-26 20:34S 36°50' E 174°50'3 3.5
2015-Jul-26 19:33S 36°51' E 174°46'  
2015-Jul-24 06:17S 36°51' E 174°54'6 3.7
2015-Jul-24 04:34S 36°51' E 174°46'6 0.9
2015-Jul-23 21:07S 36°50' E 174°54'4 6.6
2015-Jul-23 20:34S 36°50' E 174°49'2 2.4
2015-Jul-23 19:33S 36°50' E 174°46'6 0.5
2015-Jul-23 06:20S 36°51' E 174°54'6 3.6
2015-Jul-23 04:33S 36°51' E 174°46'5 0.8
2015-Jul-22 21:34S 36°50' E 174°53'1 0.7
2015-Jul-22 20:15S 36°51' E 174°54'6 0.5
2015-Jul-22 06:34S 36°51' E 174°46'6 5.8
2015-Jul-22 05:27S 36°51' E 174°54'0 0.0
2015-Jul-22 04:07S 36°51' E 174°54'4 7.0
2015-Jul-22 03:33S 36°50' E 174°49'4 2.9
2015-Jul-22 02:16S 36°51' E 174°54'0 0.0
2015-Jul-22 00:16S 36°51' E 174°54'0 0.0
2015-Jul-21 21:06S 36°51' E 174°54'4 7.0
2015-Jul-21 20:33S 36°50' E 174°49'3 2.6
2015-Jul-21 19:33S 36°50' E 174°46'  
Track history (hours):
 
Tides and Currents Weather Stations Pressure Air Temp Water Temp Dewpoint Dewpoint Depression Visibility Wind Speed Wind Dir Waves Ship Positions

Clipper 3

Last reported at 2015-Jul-31 06:17 UTC. Time now 2015-Aug-01 18:16 UTC.
Position S 36°51' E 174°53'.

Length 14 m; draft 1 m.

Type: High speed craft. MMSI: 512000741.

Date/timePositionNaut miles runAvg speedWind from/ knotsBaromVisibWave heightAir tempDewpointWater temp
2015-Jul-31 06:17S 36°51' E 174°53'6 3.5
2015-Jul-31 04:33S 36°51' E 174°46'6 0.8
2015-Jul-30 21:06S 36°51' E 174°54'3 5.4
2015-Jul-30 20:34S 36°50' E 174°50'3 3.0
2015-Jul-30 19:33S 36°50' E 174°46'6 0.5
2015-Jul-30 06:17S 36°50' E 174°54'6 3.8
2015-Jul-30 04:33S 36°51' E 174°46'6 2.6
2015-Jul-30 02:15S 36°51' E 174°53'0 0.0
2015-Jul-30 00:15S 36°51' E 174°54'0 0.0
2015-Jul-29 21:06S 36°51' E 174°54'3 6.0
2015-Jul-29 20:34S 36°50' E 174°50'3 2.9
2015-Jul-29 19:33S 36°50' E 174°46'0 0.0
2015-Jul-29 06:33S 36°51' E 174°46'6 5.6
2015-Jul-29 05:26S 36°51' E 174°54'0 0.2
2015-Jul-29 04:05S 36°51' E 174°54'4 7.3
2015-Jul-29 03:33S 36°50' E 174°49'4 3.0
2015-Jul-29 02:17S 36°51' E 174°53'0 0.2
2015-Jul-29 00:19S 36°51' E 174°54'1 0.5
2015-Jul-28 21:34S 36°50' E 174°52'1 0.6
2015-Jul-28 20:15S 36°51' E 174°53'0 0.0
2015-Jul-28 06:16S 36°51' E 174°54'6 3.7
2015-Jul-28 04:34S 36°51' E 174°46'5 5.5
2015-Jul-28 03:34S 36°50' E 174°53'1 0.8
2015-Jul-28 02:17S 36°51' E 174°54'0 0.2
2015-Jul-28 00:15S 36°51' E 174°54'6 3.6
2015-Jul-27 22:33S 36°51' E 174°46'6 4.2
2015-Jul-27 21:06S 36°51' E 174°54'3 5.1
2015-Jul-27 20:33S 36°50' E 174°50'3 3.1
2015-Jul-27 19:34S 36°50' E 174°46'6 0.5
2015-Jul-27 06:19S 36°51' E 174°54'6 3.6
2015-Jul-27 04:34S 36°51' E 174°46'6 0.8
2015-Jul-26 21:07S 36°51' E 174°53'2 4.4
2015-Jul-26 20:34S 36°50' E 174°50'3 3.5
2015-Jul-26 19:33S 36°51' E 174°46'  
2015-Jul-24 06:17S 36°51' E 174°54'6 3.7
2015-Jul-24 04:34S 36°51' E 174°46'6 0.9
2015-Jul-23 21:07S 36°50' E 174°54'4 6.6
2015-Jul-23 20:34S 36°50' E 174°49'2 2.4
2015-Jul-23 19:33S 36°50' E 174°46'6 0.5
2015-Jul-23 06:20S 36°51' E 174°54'6 3.6
2015-Jul-23 04:33S 36°51' E 174°46'5 0.8
2015-Jul-22 21:34S 36°50' E 174°53'1 0.7
2015-Jul-22 20:15S 36°51' E 174°54'6 0.5
2015-Jul-22 06:34S 36°51' E 174°46'6 5.8
2015-Jul-22 05:27S 36°51' E 174°54'0 0.0
2015-Jul-22 04:07S 36°51' E 174°54'4 7.0
2015-Jul-22 03:33S 36°50' E 174°49'4 2.9
2015-Jul-22 02:16S 36°51' E 174°54'0 0.0
2015-Jul-22 00:16S 36°51' E 174°54'0 0.0
2015-Jul-21 21:06S 36°51' E 174°54'4 7.0
2015-Jul-21 20:33S 36°50' E 174°49'3 2.6
2015-Jul-21 19:33S 36°50' E 174°46'  

Dump ship's entire track history